Waconia, Minnesota
Current Conditions -  °F | °C
As of 6:14 AM on Saturday 20 Dec 2014 (Local Time) from KGYL Reporting Station
Haze Haze  
Wind Chill: 26°   Ceiling: 500
Heat Index: 32°   Visibility: 2.5mi
Dew Point: 31°   Wind: 6mph
Humidity: 99%   Direction: 170°S
Pressure: 30.12"   Gusts: NA
Location:  44.85°N, 93.79°W
Report Text: KGYL 201214Z AUTO 17005KT 2 1/2SM BR OVC005 00/00 A3012 RMK AO2 T10011003
Loading
Personal Weather Stations






























Interactive Weather Map New forecast layout! Learn more

10-Day Weather Forecast

Advertisements
Track Severe Weather on mobile